Time;durP1;ratioP1;P1;durP2;ratioP2;P2;SDS_P1;SDS_P2;PMS_P1;PMS_P2;Temp;Humidity;BMP_temperature;BMP_pressure;BME280_temperature;BME280_humidity;BME280_pressure;Samples;Min_cycle;Max_cycle;Signal;HPM_P1;HPM_P2
2023/08/24 00:00:40;;;;;;;92.72;9.30;;;11.60;99.90;;;;;;5045276;28;20049;-24
2023/08/24 00:03:06;;;;;;;11.95;5.70;;;11.60;99.90;;;;;;5055779;28;20540;-24
2023/08/24 00:05:36;;;;;;;9.75;6.75;;;11.60;99.90;;;;;;5072529;28;20044;-24
2023/08/24 00:08:08;;;;;;;10.38;6.65;;;11.50;99.90;;;;;;5056429;28;20098;-24
2023/08/24 00:10:35;;;;;;;10.75;6.55;;;11.60;99.90;;;;;;5072377;28;20040;-24
2023/08/24 00:13:02;;;;;;;10.75;5.90;;;11.50;99.90;;;;;;5071914;28;20056;-24
2023/08/24 00:15:28;;;;;;;7.50;5.13;;;11.40;99.90;;;;;;5073089;28;20048;-24
2023/08/24 00:17:54;;;;;;;8.95;6.00;;;11.40;99.90;;;;;;5072005;28;20414;-24
2023/08/24 00:20:20;;;;;;;10.98;7.20;;;11.30;99.90;;;;;;5072762;28;20063;-23
2023/08/24 00:22:46;;;;;;;11.32;7.82;;;11.40;99.90;;;;;;5056615;28;20044;-24
2023/08/24 00:25:12;;;;;;;13.05;7.88;;;11.40;99.90;;;;;;5053037;28;20049;-24
2023/08/24 00:27:38;;;;;;;23.63;8.85;;;11.40;99.90;;;;;;5059577;28;20037;-23
2023/08/24 00:30:06;;;;;;;11.75;8.55;;;11.50;99.90;;;;;;5053806;28;20049;-23
2023/08/24 00:32:35;;;;;;;25.63;9.30;;;11.60;99.90;;;;;;5054868;28;20045;-23
2023/08/24 00:35:06;;;;;;;19.52;8.55;;;11.80;99.90;;;;;;5063907;28;20052;-23
2023/08/24 00:37:35;;;;;;;15.50;7.45;;;12.00;99.90;;;;;;5059323;28;20044;-23
2023/08/24 00:40:08;;;;;;;22.63;9.05;;;12.00;99.90;;;;;;5055951;28;20037;-23
2023/08/24 00:42:38;;;;;;;14.13;9.10;;;12.10;99.90;;;;;;5055012;28;20395;-23
2023/08/24 00:45:04;;;;;;;16.35;9.45;;;12.20;99.90;;;;;;5056102;28;20066;-23
2023/08/24 00:47:30;;;;;;;15.52;10.00;;;12.20;99.90;;;;;;5043326;28;20577;-23
2023/08/24 00:49:55;;;;;;;18.70;10.13;;;12.30;99.90;;;;;;5062837;28;20100;-24
2023/08/24 00:52:24;;;;;;;16.05;9.02;;;12.30;99.90;;;;;;5055968;28;20045;-23
2023/08/24 00:54:49;;;;;;;16.65;9.40;;;12.40;99.90;;;;;;5076246;28;20088;-23
2023/08/24 00:57:15;;;;;;;15.18;9.75;;;12.40;99.90;;;;;;5076711;28;20083;-23
2023/08/24 00:59:41;;;;;;;13.00;8.98;;;12.40;99.90;;;;;;5075291;28;20124;-23
2023/08/24 01:02:07;;;;;;;20.15;11.60;;;12.30;99.90;;;;;;5076944;28;20488;-23
2023/08/24 01:04:33;;;;;;;14.65;10.52;;;12.30;99.90;;;;;;5074891;28;20498;-23
2023/08/24 01:06:58;;;;;;;13.90;9.85;;;12.40;99.90;;;;;;5055972;28;20124;-24
2023/08/24 01:09:25;;;;;;;18.50;11.20;;;12.40;99.90;;;;;;5059230;28;20118;-23
2023/08/24 01:12:02;;;;;;;17.77;11.15;;;12.40;99.90;;;;;;5069218;28;20482;-23
2023/08/24 01:15:02;;;;;;;16.80;10.43;;;12.50;99.90;;;;;;5065030;28;20084;-23
2023/08/24 01:17:30;;;;;;;15.35;9.93;;;12.60;99.90;;;;;;5055780;28;20088;-23
2023/08/24 01:19:56;;;;;;;13.52;8.40;;;12.70;99.90;;;;;;5069261;28;20113;-24
2023/08/24 01:22:27;;;;;;;12.68;9.55;;;12.80;99.90;;;;;;5056036;28;20686;-23
2023/08/24 01:25:01;;;;;;;12.20;8.60;;;12.80;99.90;;;;;;5054609;28;20088;-23
2023/08/24 01:27:29;;;;;;;12.43;8.43;;;12.80;99.90;;;;;;5037452;28;20057;-23
2023/08/24 01:29:56;;;;;;;12.63;9.07;;;12.80;99.90;;;;;;5055314;28;20049;-23
2023/08/24 01:32:23;;;;;;;13.45;9.60;;;12.70;99.90;;;;;;5062498;28;20471;-23
2023/08/24 01:34:48;;;;;;;16.85;10.82;;;12.80;99.90;;;;;;5054744;28;20048;-24
2023/08/24 01:37:14;;;;;;;15.75;9.90;;;12.80;99.90;;;;;;5057830;28;20041;-23
2023/08/24 01:39:50;;;;;;;19.27;11.75;;;12.90;99.90;;;;;;5055869;28;20084;-23
2023/08/24 01:42:21;;;;;;;18.13;11.23;;;13.00;99.90;;;;;;5060373;28;20067;-23
2023/08/24 01:44:52;;;;;;;14.27;10.40;;;13.00;99.90;;;;;;5076152;28;20048;-23
2023/08/24 01:47:18;;;;;;;14.43;10.10;;;13.00;99.90;;;;;;5075009;28;20372;-23
2023/08/24 01:49:44;;;;;;;14.20;11.13;;;12.90;99.90;;;;;;5072885;28;20525;-23
2023/08/24 01:52:11;;;;;;;17.13;11.23;;;13.00;99.90;;;;;;5066790;28;20072;-22
2023/08/24 01:54:37;;;;;;;22.23;12.77;;;13.10;99.90;;;;;;5066753;28;20052;-23
2023/08/24 01:57:06;;;;;;;22.70;14.00;;;13.20;99.90;;;;;;5073818;28;20045;-23
2023/08/24 01:59:31;;;;;;;21.10;13.18;;;13.30;99.90;;;;;;5053586;28;20053;-23
2023/08/24 02:01:57;;;;;;;27.40;14.35;;;13.40;99.90;;;;;;5053774;28;20051;-23
2023/08/24 02:04:23;;;;;;;24.95;16.13;;;13.40;99.90;;;;;;5061726;28;20049;-23
2023/08/24 02:06:48;;;;;;;22.00;14.80;;;13.50;99.90;;;;;;5053176;28;20444;-23
2023/08/24 02:09:14;;;;;;;29.42;15.15;;;13.50;99.90;;;;;;5052655;28;20097;-23
2023/08/24 02:11:40;;;;;;;23.58;14.52;;;13.60;99.90;;;;;;5053420;28;20045;-23
2023/08/24 02:14:06;;;;;;;30.40;15.30;;;13.70;99.90;;;;;;5056848;28;20052;-23
2023/08/24 02:16:31;;;;;;;28.52;15.30;;;13.70;99.90;;;;;;5072566;28;20045;-23
2023/08/24 02:18:57;;;;;;;21.02;13.05;;;13.70;99.90;;;;;;5073674;28;20447;-24
2023/08/24 02:21:23;;;;;;;21.30;11.90;;;13.80;99.90;;;;;;5071197;28;20060;-24
2023/08/24 02:23:48;;;;;;;15.93;10.10;;;13.80;99.90;;;;;;5056947;28;20063;-22
2023/08/24 02:26:14;;;;;;;21.05;11.13;;;13.80;99.90;;;;;;5052946;28;20044;-23
2023/08/24 02:28:40;;;;;;;20.10;11.82;;;13.70;99.90;;;;;;5054136;28;20067;-23
2023/08/24 02:31:06;;;;;;;22.98;13.10;;;13.70;99.90;;;;;;5054161;28;20103;-23
2023/08/24 02:33:32;;;;;;;16.77;11.38;;;13.70;99.90;;;;;;5054162;28;20037;-23
2023/08/24 02:35:58;;;;;;;15.77;10.00;;;13.70;99.90;;;;;;5062888;28;20080;-23
2023/08/24 02:38:24;;;;;;;13.88;10.40;;;13.70;99.90;;;;;;5065173;28;20079;-23
2023/08/24 02:40:59;;;;;;;14.88;10.00;;;13.70;99.90;;;;;;5058924;28;20123;-23
2023/08/24 02:43:25;;;;;;;15.75;9.60;;;13.70;99.90;;;;;;5056117;28;20120;-23
2023/08/24 02:45:50;;;;;;;14.00;9.63;;;13.70;99.90;;;;;;5046463;28;20082;-23
2023/08/24 02:48:16;;;;;;;10.13;7.90;;;13.70;99.90;;;;;;5061681;28;20487;-23
2023/08/24 02:50:47;;;;;;;10.68;7.57;;;13.70;99.90;;;;;;5054056;28;20053;-23
2023/08/24 02:53:13;;;;;;;10.88;7.90;;;13.70;99.90;;;;;;5073452;28;20044;-23
2023/08/24 02:55:39;;;;;;;11.02;8.25;;;13.70;99.90;;;;;;5072712;28;20044;-23
2023/08/24 02:58:06;;;;;;;13.52;8.63;;;13.70;99.90;;;;;;5073933;28;20048;-23
2023/08/24 03:00:32;;;;;;;15.80;10.32;;;13.70;99.90;;;;;;5073030;28;20494;-23
2023/08/24 03:02:58;;;;;;;18.70;12.85;;;13.70;99.90;;;;;;5074494;28;20087;-23
2023/08/24 03:05:24;;;;;;;12.70;9.60;;;13.70;99.90;;;;;;5054025;28;20049;-23
2023/08/24 03:07:50;;;;;;;12.40;9.23;;;13.70;99.90;;;;;;5053785;28;20391;-23
2023/08/24 03:10:16;;;;;;;16.48;9.07;;;13.60;99.90;;;;;;5053770;28;20049;-24
2023/08/24 03:12:41;;;;;;;13.77;9.45;;;13.60;99.90;;;;;;5053132;28;20049;-23
2023/08/24 03:15:07;;;;;;;14.20;9.68;;;13.50;99.90;;;;;;5052528;28;20045;-23
2023/08/24 03:17:33;;;;;;;16.45;11.02;;;13.40;99.90;;;;;;5058947;28;20116;-23
2023/08/24 03:19:59;;;;;;;17.75;10.82;;;13.40;99.90;;;;;;5052057;28;20044;-23
2023/08/24 03:22:24;;;;;;;17.75;10.82;;;13.20;99.90;;;;;;5052071;28;20056;-23
2023/08/24 03:24:50;;;;;;;19.92;11.40;;;13.20;99.90;;;;;;5059600;28;20051;-23
2023/08/24 03:27:16;;;;;;;14.65;10.00;;;13.10;99.90;;;;;;5053731;28;20424;-22
2023/08/24 03:29:42;;;;;;;14.13;9.13;;;13.20;99.90;;;;;;5060697;28;20045;-23
2023/08/24 03:32:08;;;;;;;13.05;9.07;;;13.10;99.90;;;;;;5053185;28;20041;-23
2023/08/24 03:34:33;;;;;;;17.77;10.35;;;13.00;99.90;;;;;;5053297;28;20458;-22
2023/08/24 03:37:04;;;;;;;13.13;8.85;;;13.00;99.90;;;;;;5058395;28;20037;-23
2023/08/24 03:39:30;;;;;;;15.35;9.88;;;13.00;99.90;;;;;;5051732;28;20041;-23
2023/08/24 03:41:55;;;;;;;15.52;10.00;;;13.10;99.90;;;;;;5058053;28;20045;-22
2023/08/24 03:44:21;;;;;;;14.63;9.93;;;13.00;99.90;;;;;;5071859;28;20049;-22
2023/08/24 03:46:47;;;;;;;17.08;9.90;;;13.00;99.90;;;;;;5056662;28;20128;-22
2023/08/24 03:49:13;;;;;;;15.13;10.27;;;13.20;99.90;;;;;;5070201;28;20449;-23
2023/08/24 03:51:38;;;;;;;14.57;9.43;;;13.20;99.90;;;;;;5072097;28;20068;-22
2023/08/24 03:54:05;;;;;;;15.60;9.57;;;13.20;99.90;;;;;;5035217;28;20056;-22
2023/08/24 03:56:31;;;;;;;21.02;13.00;;;13.20;99.90;;;;;;5053307;28;20041;-23
2023/08/24 03:58:57;;;;;;;21.15;12.95;;;13.20;99.90;;;;;;5051646;28;20045;-22
2023/08/24 04:01:23;;;;;;;20.40;13.30;;;13.40;99.90;;;;;;5059859;28;20406;-23
2023/08/24 04:03:49;;;;;;;25.60;15.57;;;13.40;99.90;;;;;;5053263;28;20041;-23
2023/08/24 04:06:17;;;;;;;27.23;16.27;;;13.30;99.90;;;;;;5054468;28;20045;-23
2023/08/24 04:08:43;;;;;;;18.90;13.98;;;13.40;99.90;;;;;;5038285;28;20045;-23
2023/08/24 04:11:09;;;;;;;36.85;16.58;;;13.40;99.90;;;;;;5065357;28;20123;-23
2023/08/24 04:13:34;;;;;;;23.55;14.70;;;13.40;99.90;;;;;;5055586;28;20037;-23
2023/08/24 04:16:00;;;;;;;22.88;15.90;;;13.40;99.90;;;;;;5064439;28;20048;-23
2023/08/24 04:18:26;;;;;;;21.35;14.55;;;13.40;99.90;;;;;;5056983;28;20095;-23
2023/08/24 04:20:55;;;;;;;28.00;15.50;;;13.40;99.90;;;;;;5039540;28;20052;-23
2023/08/24 04:23:27;;;;;;;27.85;15.82;;;13.40;99.90;;;;;;5056627;28;20064;-23
2023/08/24 04:25:54;;;;;;;33.17;16.55;;;13.40;99.90;;;;;;5056469;28;20076;-23
2023/08/24 04:28:20;;;;;;;23.40;13.90;;;13.40;99.90;;;;;;5043601;28;20473;-22
2023/08/24 04:30:53;;;;;;;17.58;12.00;;;13.30;99.90;;;;;;5076084;28;20052;-22
2023/08/24 04:33:19;;;;;;;;;;;13.30;99.90;;;;;;5064001;28;20045;-23
2023/08/24 04:35:49;;;;;;;26.10;14.38;;;13.40;99.90;;;;;;5055368;28;19974;-23
2023/08/24 04:38:15;;;;;;;25.13;13.77;;;13.30;99.90;;;;;;5058321;28;20458;-22
2023/08/24 04:40:46;;;;;;;30.38;14.68;;;13.40;99.90;;;;;;5055356;28;20045;-23
2023/08/24 04:43:12;;;;;;;32.88;17.10;;;13.40;99.90;;;;;;5064386;28;20107;-23
2023/08/24 04:45:38;;;;;;;26.27;15.10;;;13.40;99.90;;;;;;5064353;28;20040;-23
2023/08/24 04:48:04;;;;;;;26.30;16.00;;;13.50;99.90;;;;;;5070116;28;20052;-22
2023/08/24 04:50:29;;;;;;;27.90;15.70;;;13.50;99.90;;;;;;5059197;28;20502;-23
2023/08/24 04:52:55;;;;;;;32.22;16.33;;;13.40;99.90;;;;;;5058801;28;20053;-23
2023/08/24 04:55:21;;;;;;;29.75;17.02;;;13.40;99.90;;;;;;5076269;28;20044;-23
2023/08/24 04:57:46;;;;;;;32.28;17.17;;;13.50;99.90;;;;;;5075270;28;20044;-23
2023/08/24 05:00:15;;;;;;;34.75;17.27;;;13.50;99.90;;;;;;5076194;28;20048;-23
2023/08/24 05:02:42;;;;;;;22.67;13.90;;;13.50;99.90;;;;;;5076192;28;20386;-22
2023/08/24 05:05:13;;;;;;;25.48;15.43;;;13.50;99.90;;;;;;5071916;28;20103;-22
2023/08/24 05:07:40;;;;;;;32.95;16.73;;;13.60;99.90;;;;;;5056050;28;20037;-22
2023/08/24 05:10:07;;;;;;;32.63;16.58;;;13.70;99.90;;;;;;5055936;28;20052;-23
2023/08/24 05:12:35;;;;;;;33.42;16.98;;;13.70;99.90;;;;;;5055945;28;20056;-23
2023/08/24 05:15:05;;;;;;;31.67;16.67;;;13.80;99.90;;;;;;5039405;28;20110;-22
2023/08/24 05:17:32;;;;;;;29.77;16.52;;;13.90;99.90;;;;;;5055247;28;20048;-23
2023/08/24 05:19:58;;;;;;;29.38;15.60;;;13.90;99.90;;;;;;5060855;28;20037;-22
2023/08/24 05:22:24;;;;;;;28.13;17.38;;;14.10;99.90;;;;;;5037883;28;20061;-22
2023/08/24 05:24:50;;;;;;;29.17;15.68;;;14.00;99.90;;;;;;5063978;28;20112;-23
2023/08/24 05:27:16;;;;;;;24.33;15.05;;;14.10;99.90;;;;;;5053979;28;20103;-22
2023/08/24 05:29:45;;;;;;;20.15;13.57;;;14.20;99.90;;;;;;5037928;28;20094;-22
2023/08/24 05:32:10;;;;;;;23.23;14.05;;;14.20;99.90;;;;;;5053961;28;20045;-22
2023/08/24 05:34:36;;;;;;;24.65;14.35;;;14.40;99.90;;;;;;5055158;28;20048;-22
2023/08/24 05:37:02;;;;;;;27.33;15.65;;;14.40;99.90;;;;;;5057133;28;20041;-22
2023/08/24 05:39:28;;;;;;;27.45;13.95;;;14.50;99.90;;;;;;5055063;28;20063;-23
2023/08/24 05:41:53;;;;;;;20.65;12.50;;;14.70;99.90;;;;;;5064420;28;20115;-23
2023/08/24 05:44:23;;;;;;;22.27;13.07;;;14.70;99.90;;;;;;5044457;28;20049;-23
2023/08/24 05:46:50;;;;;;;26.27;13.82;;;14.90;99.90;;;;;;5053630;28;20080;-22
2023/08/24 05:49:16;;;;;;;20.63;12.20;;;14.90;99.90;;;;;;5068346;28;20131;-23
2023/08/24 05:51:42;;;;;;;28.15;12.32;;;15.00;99.90;;;;;;5055021;28;20170;-23
2023/08/24 05:54:08;;;;;;;20.77;12.10;;;15.00;99.90;;;;;;5055261;28;20124;-23
2023/08/24 05:56:33;;;;;;;22.88;11.75;;;15.00;99.90;;;;;;5053848;28;20482;-23
2023/08/24 05:58:59;;;;;;;16.83;12.48;;;15.10;99.90;;;;;;5037341;28;20495;-23
2023/08/24 06:01:26;;;;;;;23.65;12.13;;;15.20;99.90;;;;;;5053870;28;20120;-23
2023/08/24 06:03:52;;;;;;;14.52;10.50;;;15.30;99.90;;;;;;5054558;28;20131;-23
2023/08/24 06:06:18;;;;;;;20.30;12.38;;;15.40;99.90;;;;;;5037367;28;20091;-23
2023/08/24 06:08:43;;;;;;;17.58;12.35;;;15.60;99.90;;;;;;5057877;28;20045;-23
2023/08/24 06:11:10;;;;;;;15.45;11.13;;;15.80;99.90;;;;;;5053826;28;20076;-22
2023/08/24 06:13:35;;;;;;;14.02;10.13;;;15.80;99.90;;;;;;5059710;28;20070;-23
2023/08/24 06:16:01;;;;;;;18.73;10.18;;;15.90;99.90;;;;;;5065530;28;20073;-23
2023/08/24 06:18:28;;;;;;;15.02;9.27;;;16.10;99.90;;;;;;5069224;28;20127;-23
2023/08/24 06:20:54;;;;;;;17.20;9.25;;;16.10;99.90;;;;;;5074492;28;20091;-24
2023/08/24 06:23:21;;;;;;;19.15;9.63;;;16.20;99.90;;;;;;5067587;28;20494;-23
2023/08/24 06:25:47;;;;;;;14.05;8.85;;;16.30;99.90;;;;;;5020829;28;20049;-23
2023/08/24 06:28:14;;;;;;;17.08;9.52;;;16.30;99.90;;;;;;5052807;28;20040;-24
2023/08/24 06:30:41;;;;;;;14.75;9.30;;;16.20;99.90;;;;;;5063514;28;20083;-23
2023/08/24 06:33:07;;;;;;;12.50;9.68;;;16.20;99.90;;;;;;5073180;28;20124;-23
2023/08/24 06:35:33;;;;;;;17.55;10.25;;;16.30;99.90;;;;;;5074376;28;20045;-23
2023/08/24 06:38:00;;;;;;;17.00;8.98;;;16.20;99.90;;;;;;5073057;28;20408;-23
2023/08/24 06:40:25;;;;;;;15.73;9.75;;;16.40;99.90;;;;;;5073338;28;20052;-23
2023/08/24 06:42:51;;;;;;;14.43;9.77;;;16.40;99.90;;;;;;5073967;28;20059;-24
2023/08/24 06:45:22;;;;;;;15.68;10.13;;;16.40;99.90;;;;;;5074200;28;20102;-23
2023/08/24 06:47:51;;;;;;;15.93;10.05;;;16.50;99.90;;;;;;5072772;28;20478;-23
2023/08/24 06:50:19;;;;;;;14.60;10.02;;;16.50;99.90;;;;;;5073126;28;20138;-24
2023/08/24 06:52:45;;;;;;;16.05;9.32;;;16.60;99.90;;;;;;5074081;28;20052;-23
2023/08/24 06:55:11;;;;;;;10.63;8.27;;;16.80;99.90;;;;;;5074011;28;20059;-23
2023/08/24 06:57:38;;;;;;;16.88;8.68;;;16.80;99.90;;;;;;5071798;28;20056;-24
2023/08/24 07:00:08;;;;;;;14.77;8.00;;;16.90;99.90;;;;;;5065620;28;20088;-23
2023/08/24 07:02:38;;;;;;;12.07;7.65;;;17.00;99.90;;;;;;5060088;28;20045;-24
2023/08/24 07:05:08;;;;;;;11.02;7.25;;;17.10;99.90;;;;;;5053453;28;20041;-23
2023/08/24 07:07:35;;;;;;;11.35;5.53;;;17.20;99.90;;;;;;5036892;28;20464;-24
2023/08/24 07:10:00;;;;;;;9.35;4.28;;;17.40;99.90;;;;;;5053789;28;20132;-24
2023/08/24 07:12:26;;;;;;;6.43;3.80;;;17.50;99.90;;;;;;5052956;28;20128;-24
2023/08/24 07:14:55;;;;;;;5.93;3.03;;;17.50;99.90;;;;;;5035948;28;20049;-24
2023/08/24 07:17:23;;;;;;;10.27;3.38;;;17.60;99.90;;;;;;5053683;28;20107;-24
2023/08/24 07:19:52;;;;;;;7.88;4.05;;;17.70;99.90;;;;;;5053425;28;20045;-24
2023/08/24 07:22:17;;;;;;;11.82;4.25;;;17.80;99.90;;;;;;5056279;28;20110;-23
2023/08/24 07:24:43;;;;;;;8.57;4.18;;;17.90;99.90;;;;;;5053579;28;20057;-24
2023/08/24 07:27:09;;;;;;;6.40;2.97;;;18.10;99.90;;;;;;5053593;28;20045;-24
2023/08/24 07:29:35;;;;;;;7.95;3.05;;;18.20;99.90;;;;;;5068221;28;20044;-24
2023/08/24 07:32:01;;;;;;;7.13;2.63;;;18.30;99.90;;;;;;5070605;28;20052;-23
2023/08/24 07:34:29;;;;;;;12.80;2.50;;;18.40;99.90;;;;;;5052302;28;20497;-24
2023/08/24 07:36:55;;;;;;;7.13;2.47;;;18.50;99.90;;;;;;5053462;28;20045;-24
2023/08/24 07:39:21;;;;;;;8.10;2.50;;;18.60;99.90;;;;;;5052195;28;20505;-24
2023/08/24 07:41:47;;;;;;;4.18;2.25;;;18.70;99.90;;;;;;5057825;28;20056;-24
2023/08/24 07:44:15;;;;;;;4.95;2.50;;;18.80;99.90;;;;;;5057380;28;20037;-24
2023/08/24 07:46:40;;;;;;;4.97;2.80;;;18.90;99.90;;;;;;5068956;28;20037;-23
2023/08/24 07:49:06;;;;;;;6.85;2.67;;;19.00;99.90;;;;;;5058202;28;20106;-24
2023/08/24 07:51:35;;;;;;;5.53;3.42;;;19.20;99.90;;;;;;5066707;28;20044;-24
2023/08/24 07:54:01;;;;;;;5.10;2.50;;;19.30;99.90;;;;;;5077426;28;20131;-24
2023/08/24 07:56:27;;;;;;;5.60;2.30;;;19.40;99.90;;;;;;5062814;28;20136;-24
2023/08/24 07:58:52;;;;;;;6.97;2.33;;;19.50;99.90;;;;;;5039639;28;20123;-24
2023/08/24 08:01:18;;;;;;;4.03;1.88;;;19.70;99.90;;;;;;5057125;28;20128;-24
2023/08/24 08:03:44;;;;;;;3.65;2.03;;;19.80;99.90;;;;;;5056096;28;20049;-24
2023/08/24 08:06:09;;;;;;;5.53;2.28;;;20.00;99.90;;;;;;5063040;28;20409;-24
2023/08/24 08:08:40;;;;;;;7.57;3.08;;;20.20;99.90;;;;;;5041816;28;20049;-24
2023/08/24 08:11:06;;;;;;;5.50;1.85;;;20.20;52.20;;;;;;5057706;28;20049;-24
2023/08/24 08:13:32;;;;;;;5.38;2.05;;;20.30;94.60;;;;;;5055819;28;20053;-24
2023/08/24 08:16:04;;;;;;;9.38;2.53;;;20.30;56.00;;;;;;5056698;28;20384;-23
2023/08/24 08:18:32;;;;;;;4.85;1.88;;;20.40;1.00;;;;;;5039080;28;20041;-26
2023/08/24 08:20:58;;;;;;;9.15;2.28;;;20.40;99.90;;;;;;5057088;28;20075;-25
2023/08/24 08:23:23;;;;;;;7.40;2.60;;;20.40;1.00;;;;;;5039568;28;20475;-26
2023/08/24 08:25:50;;;;;;;5.75;2.75;;;20.50;1.00;;;;;;5056274;28;20041;-25
2023/08/24 08:28:17;;;;;;;6.43;2.75;;;20.60;99.90;;;;;;5056420;28;20221;-24
2023/08/24 08:30:43;;;;;;;4.78;2.47;;;20.60;99.90;;;;;;5076143;28;20063;-25
2023/08/24 08:33:09;;;;;;;7.03;2.53;;;20.70;99.90;;;;;;5068636;28;20057;-25
2023/08/24 08:35:35;;;;;;;6.35;3.13;;;20.80;1.00;;;;;;5040547;28;20136;-25
2023/08/24 08:38:07;;;;;;;5.65;2.70;;;20.90;99.90;;;;;;5055025;28;20471;-25
2023/08/24 08:40:37;;;;;;;8.23;3.25;;;21.10;99.90;;;;;;5055439;28;20403;-25
2023/08/24 08:43:03;;;;;;;6.35;3.67;;;21.20;99.90;;;;;;5038928;28;20060;-25
2023/08/24 08:45:29;;;;;;;7.15;3.85;;;21.30;99.90;;;;;;5055956;28;20032;-25
2023/08/24 08:48:03;;;;;;;7.00;3.50;;;21.30;99.90;;;;;;5055161;28;20495;-25
2023/08/24 08:50:31;;;;;;;9.15;3.08;;;21.50;99.90;;;;;;5059248;28;20057;-24
2023/08/24 08:52:58;;;;;;;7.55;4.30;;;21.60;99.90;;;;;;5058873;28;20045;-24
2023/08/24 08:55:25;;;;;;;7.30;3.42;;;21.80;99.90;;;;;;5060287;28;20119;-25
2023/08/24 08:57:58;;;;;;;4.75;2.95;;;22.00;99.90;;;;;;5067717;28;20368;-24
2023/08/24 09:00:24;;;;;;;7.00;3.30;;;22.10;99.90;;;;;;5063239;28;20490;-24
2023/08/24 09:02:52;;;;;;;7.28;3.40;;;22.00;99.90;;;;;;5073529;28;20071;-25
2023/08/24 09:05:25;;;;;;;8.25;4.03;;;22.00;99.90;;;;;;5069682;28;20060;-25
2023/08/24 09:07:55;;;;;;;7.05;3.35;;;22.20;99.90;;;;;;5062839;28;20048;-25
2023/08/24 09:10:22;;;;;;;6.30;3.72;;;22.80;1.00;;;;;;5056781;28;20483;-25
2023/08/24 09:12:48;;;;;;;10.40;3.67;;;23.30;1.00;;;;;;5051863;28;20179;-24
2023/08/24 09:15:35;;;;;;;8.15;4.40;;;23.70;99.90;;;;;;5061290;28;20457;-25
2023/08/24 09:18:05;;;;;;;21.33;3.92;;;23.90;99.90;;;;;;5066074;28;20375;-25
2023/08/24 09:20:34;;;;;;;5.78;4.00;;;24.40;1.00;;;;;;5055503;28;20105;-25
2023/08/24 09:23:03;;;;;;;10.38;3.80;;;24.80;99.90;;;;;;5044261;28;20441;-26
2023/08/24 09:25:29;;;;;;;7.53;3.97;;;24.90;99.90;;;;;;5056451;28;20052;-25
2023/08/24 09:28:08;;;;;;;8.65;4.13;;;24.70;99.90;;;;;;5069568;28;20044;-25
2023/08/24 09:30:37;;;;;;;8.85;4.00;;;24.60;1.00;;;;;;5075135;28;20124;-26
2023/08/24 09:33:10;;;;;;;9.90;4.45;;;24.50;1.00;;;;;;5048714;28;20049;-27
2023/08/24 09:35:39;;;;;;;10.48;4.30;;;24.30;99.90;;;;;;5060224;28;20522;-25
2023/08/24 09:38:22;;;;;;;7.30;3.90;;;24.20;1.00;;;;;;5055550;28;20044;-25
2023/08/24 09:40:54;;;;;;;7.43;4.68;;;24.00;64.30;;;;;;5074412;28;20044;-26
2023/08/24 09:43:20;;;;;;;8.90;4.22;;;23.90;1.00;;;;;;5069471;28;20080;-26
2023/08/24 09:45:58;;;;;;;7.35;4.45;;;23.70;2.20;;;;;;5058979;28;20056;-25
2023/08/24 09:48:24;;;;;;;7.85;4.65;;;23.60;1.00;;;;;;5059550;28;20041;-25
2023/08/24 09:50:51;;;;;;;7.30;4.40;;;23.50;99.90;;;;;;5055257;28;20406;-26
2023/08/24 09:53:22;;;;;;;8.15;3.90;;;23.50;99.90;;;;;;5065196;28;20048;-27
2023/08/24 09:56:08;;;;;;;7.32;3.70;;;23.40;99.90;;;;;;5060180;28;20064;-28
2023/08/24 09:58:37;;;;;;;6.53;4.35;;;23.30;87.00;;;;;;5060314;28;20048;-27
2023/08/24 10:01:06;;;;;;;8.13;4.45;;;23.20;99.90;;;;;;5073853;28;20084;-27
2023/08/24 10:03:34;;;;;;;10.40;5.05;;;23.10;99.90;;;;;;5073665;28;20084;-26
2023/08/24 10:06:01;;;;;;;8.88;4.10;;;23.00;99.90;;;;;;5053982;28;20123;-27
2023/08/24 10:08:29;;;;;;;10.25;4.60;;;22.90;99.90;;;;;;5055229;28;20392;-28
2023/08/24 10:11:02;;;;;;;9.20;4.43;;;22.80;99.90;;;;;;5056614;28;20498;-26
2023/08/24 10:13:42;;;;;;;10.55;4.55;;;22.70;1.00;;;;;;5067906;28;20094;-28
2023/08/24 10:16:09;;;;;;;7.07;4.07;;;22.70;1.00;;;;;;5058510;28;20473;-27
2023/08/24 10:18:37;;;;;;;10.23;4.57;;;22.60;1.00;;;;;;5057659;28;20123;-27
2023/08/24 10:21:03;;;;;;;13.07;3.88;;;22.60;1.00;;;;;;5055709;28;20061;-26
2023/08/24 10:23:34;;;;;;;9.63;4.78;;;22.50;12.50;;;;;;5037400;28;20103;-26
2023/08/24 10:26:06;;;;;;;7.25;4.35;;;22.40;13.90;;;;;;5072673;28;20047;-27
2023/08/24 10:28:33;;;;;;;8.90;4.32;;;22.30;66.20;;;;;;5042392;28;20479;-26
2023/08/24 10:31:01;;;;;;;21.55;5.50;;;22.30;99.90;;;;;;5059512;28;20044;-28
2023/08/24 10:33:28;;;;;;;10.32;5.40;;;22.20;99.90;;;;;;5066625;28;20113;-26
2023/08/24 10:35:57;;;;;;;11.50;5.20;;;22.20;99.90;;;;;;5066718;28;20044;-27
2023/08/24 10:38:24;;;;;;;14.90;5.25;;;22.10;99.90;;;;;;5053233;28;20049;-26
2023/08/24 10:40:51;;;;;;;10.25;5.25;;;22.00;99.90;;;;;;5058769;28;20057;-28
2023/08/24 10:43:17;;;;;;;9.15;5.50;;;21.90;99.90;;;;;;5061813;28;20049;-26
2023/08/24 10:46:02;;;;;;;11.43;7.30;;;21.90;99.90;;;;;;5058139;28;20044;-26
2023/08/24 10:48:30;;;;;;;12.75;6.25;;;21.80;99.90;;;;;;5053306;28;20041;-27
2023/08/24 10:51:19;;;;;;;13.55;6.25;;;21.60;99.90;;;;;;5067946;28;20079;-27
2023/08/24 10:53:58;;;;;;;14.45;7.13;;;21.50;99.90;;;;;;5073191;28;20091;-27
2023/08/24 10:57:05;;;;;;;11.70;6.20;;;21.50;99.90;;;;;;5073189;28;20048;-27
2023/08/24 10:59:40;;;;;;;14.18;6.47;;;21.30;1.00;;;;;;5073664;28;20558;-27
2023/08/24 11:02:19;;;;;;;13.57;6.20;;;21.20;1.00;;;;;;5071346;28;20120;-25
2023/08/24 11:05:06;;;;;;;14.98;7.13;;;21.20;29.10;;;;;;5073088;28;20044;-25
2023/08/24 11:07:32;;;;;;;15.30;7.40;;;21.00;99.90;;;;;;5073284;28;20049;-24
2023/08/24 11:09:58;;;;;;;15.13;7.25;;;20.80;99.90;;;;;;5073247;28;20131;-23
2023/08/24 11:12:23;;;;;;;13.80;7.82;;;20.70;99.90;;;;;;5067645;28;20057;-23
2023/08/24 11:14:54;;;;;;;20.10;8.85;;;20.60;99.90;;;;;;5060349;28;20052;-23
2023/08/24 11:17:21;;;;;;;14.18;8.07;;;20.50;99.90;;;;;;5051993;28;20128;-23
2023/08/24 11:19:52;;;;;;;11.20;7.50;;;20.40;99.90;;;;;;5053302;28;20064;-22
2023/08/24 11:22:18;;;;;;;13.45;8.07;;;20.50;99.90;;;;;;5053758;28;20061;-23
2023/08/24 11:24:45;;;;;;;13.05;8.70;;;20.40;99.90;;;;;;5054321;28;20041;-23
2023/08/24 11:27:11;;;;;;;12.63;8.35;;;20.40;99.90;;;;;;5055916;28;20076;-24
2023/08/24 11:29:36;;;;;;;17.75;9.27;;;20.30;99.90;;;;;;5053583;28;20083;-23
2023/08/24 11:32:03;;;;;;;15.05;9.20;;;20.30;99.90;;;;;;5053607;28;20127;-23
2023/08/24 11:34:29;;;;;;;19.00;9.05;;;20.30;99.90;;;;;;5036383;28;20135;-23
2023/08/24 11:36:55;;;;;;;13.63;8.68;;;20.30;99.90;;;;;;5055415;28;20057;-23
2023/08/24 11:39:24;;;;;;;16.52;10.32;;;20.30;99.90;;;;;;5034049;28;20128;-23
2023/08/24 11:42:03;;;;;;;20.17;10.00;;;20.30;99.90;;;;;;5054101;28;20045;-23
2023/08/24 11:44:40;;;;;;;15.63;8.98;;;20.40;99.90;;;;;;5050931;28;20142;-23
2023/08/24 11:47:05;;;;;;;10.73;9.45;;;20.60;99.90;;;;;;5041658;28;20064;-23
2023/08/24 11:49:33;;;;;;;15.07;8.50;;;20.60;99.90;;;;;;5019984;28;20041;-23
2023/08/24 11:51:59;;;;;;;15.70;10.32;;;20.80;99.90;;;;;;5064453;28;20048;-23
2023/08/24 11:54:24;;;;;;;14.25;9.70;;;20.90;99.90;;;;;;5052985;28;20060;-23
2023/08/24 11:56:50;;;;;;;12.20;8.98;;;21.00;99.90;;;;;;5065418;28;20478;-23
2023/08/24 11:59:17;;;;;;;12.20;8.50;;;21.20;99.90;;;;;;5071394;28;20527;-23
2023/08/24 12:01:45;;;;;;;13.80;9.48;;;21.30;99.90;;;;;;5051733;28;20506;-24
2023/08/24 12:04:12;;;;;;;16.42;9.13;;;21.40;99.90;;;;;;5052710;28;20051;-24
2023/08/24 12:06:38;;;;;;;15.65;9.23;;;21.50;99.90;;;;;;5053540;28;20052;-23
2023/08/24 12:09:07;;;;;;;12.55;8.50;;;21.60;99.90;;;;;;5048001;28;20118;-23
2023/08/24 12:11:39;;;;;;;14.35;10.65;;;21.60;99.90;;;;;;5073245;28;20044;-23
2023/08/24 12:14:06;;;;;;;15.03;9.40;;;21.60;99.90;;;;;;5055599;28;20060;-24
2023/08/24 12:16:33;;;;;;;14.30;9.18;;;21.60;99.90;;;;;;5071830;28;20398;-24
2023/08/24 12:19:02;;;;;;;17.08;10.80;;;21.60;99.90;;;;;;5073222;28;20044;-23
2023/08/24 12:21:29;;;;;;;13.65;9.00;;;21.70;99.90;;;;;;5071938;28;20056;-24
2023/08/24 12:24:08;;;;;;;13.02;8.95;;;21.70;99.90;;;;;;5073425;28;20088;-24
2023/08/24 12:26:35;;;;;;;13.10;9.48;;;21.70;99.90;;;;;;5055993;28;20045;-23
2023/08/24 12:29:09;;;;;;;12.38;9.95;;;21.70;99.90;;;;;;5052558;28;20452;-24
2023/08/24 12:31:36;;;;;;;13.57;9.80;;;21.80;99.90;;;;;;5057373;28;20442;-24
2023/08/24 12:34:03;;;;;;;13.60;9.68;;;21.90;99.90;;;;;;5065721;28;20041;-24
2023/08/24 12:36:31;;;;;;;11.73;8.82;;;22.10;99.90;;;;;;5076362;28;20084;-24
2023/08/24 12:38:58;;;;;;;11.80;8.50;;;22.30;99.90;;;;;;5075348;28;20079;-24